Ashburn, Georgia
Current Conditions -  °F | °C
As of 12:35 AM on Wednesday 26 Nov 2014 (Local Time) from KCKF Reporting Station
Light Rain Light Rain  
Wind Chill: 45°   Ceiling: 4500
Heat Index: 47°   Visibility: 7mi
Dew Point: 45°   Wind: 5mph
Humidity: 94%   Direction: 340°NNW
Pressure: 30.04"   Gusts: NA
Location:  31.71°N, 83.65°W
Report Text: KCKF 260535Z AUTO 34004KT 7SM -RA SCT037 OVC045 08/07 A3004 RMK AO2 T00830074
Loading
Personal Weather Stations






























Interactive Weather Map New forecast layout! Learn more

10-Day Weather Forecast

Advertisements
Track Severe Weather on mobile